createdAt,value
2022-09-03T00:01:07.756Z,17.75
2022-09-03T00:03:41.521Z,17.74
2022-09-03T00:06:17.524Z,17.74
2022-09-03T00:08:49.447Z,17.73
2022-09-03T00:11:20.843Z,17.73
2022-09-03T00:13:56.531Z,17.77
2022-09-03T00:16:27.756Z,17.80
2022-09-03T00:19:00.703Z,17.78
2022-09-03T00:21:39.042Z,17.74
2022-09-03T00:24:14.033Z,17.70
2022-09-03T00:26:46.268Z,17.68
2022-09-03T00:29:17.653Z,17.65
2022-09-03T00:31:49.061Z,17.63
2022-09-03T00:34:23.105Z,17.59
2022-09-03T00:36:50.808Z,17.56
2022-09-03T00:39:21.325Z,17.55
2022-09-03T00:42:07.833Z,17.54
2022-09-03T00:44:48.274Z,17.49
2022-09-03T00:47:25.594Z,17.41
2022-09-03T00:50:04.154Z,17.40
2022-09-03T00:52:46.029Z,17.39
2022-09-03T00:55:23.426Z,17.37
2022-09-03T00:58:04.130Z,17.39
2022-09-03T01:00:31.745Z,17.38
2022-09-03T01:03:08.656Z,17.36
2022-09-03T01:05:44.296Z,17.35
2022-09-03T01:08:32.213Z,17.35
2022-09-03T01:11:10.541Z,17.34
2022-09-03T01:13:44.718Z,17.28
2022-09-03T01:16:22.315Z,17.27
2022-09-03T01:18:55.871Z,17.29
2022-09-03T01:21:55.312Z,17.31
2022-09-03T01:24:36.388Z,17.29
2022-09-03T01:27:20.608Z,17.32
2022-09-03T01:29:58.397Z,17.34
2022-09-03T01:32:34.495Z,17.33
2022-09-03T01:35:09.851Z,17.32
2022-09-03T01:37:47.787Z,17.30
2022-09-03T01:40:21.015Z,17.32
2022-09-03T01:43:00.189Z,17.38
2022-09-03T01:45:51.233Z,17.38
2022-09-03T01:48:33.718Z,17.32
2022-09-03T01:51:11.106Z,17.24
2022-09-03T01:54:21.719Z,17.16
2022-09-03T01:57:12.867Z,17.09
2022-09-03T02:00:02.656Z,17.06
2022-09-03T02:02:32.699Z,17.03
2022-09-03T02:05:02.758Z,17.00
2022-09-03T02:07:34.820Z,16.95
2022-09-03T02:10:04.190Z,16.95
2022-09-03T02:12:34.927Z,16.91
2022-09-03T02:15:07.101Z,16.87
2022-09-03T02:17:37.302Z,16.86
2022-09-03T02:20:10.228Z,16.86
2022-09-03T02:22:37.870Z,16.86
2022-09-03T02:25:06.180Z,16.88
2022-09-03T02:27:33.818Z,16.83
2022-09-03T02:30:01.472Z,16.80
2022-09-03T02:32:29.251Z,16.79
2022-09-03T02:34:58.841Z,16.83
2022-09-03T02:37:26.919Z,16.88
2022-09-03T02:39:54.574Z,16.91
2022-09-03T02:42:22.317Z,16.93
2022-09-03T02:44:53.624Z,16.93
2022-09-03T02:47:21.846Z,16.94
2022-09-03T02:49:49.670Z,16.95
2022-09-03T02:52:18.655Z,16.98
2022-09-03T02:54:46.234Z,17.03
2022-09-03T02:57:16.248Z,17.06
2022-09-03T02:59:47.613Z,17.09
2022-09-03T03:02:15.397Z,17.13
2022-09-03T03:04:43.096Z,17.16
2022-09-03T03:07:10.707Z,17.21
2022-09-03T03:09:39.757Z,17.23
2022-09-03T03:12:08.791Z,17.22
2022-09-03T03:14:37.511Z,17.15
2022-09-03T03:17:06.030Z,17.14
2022-09-03T03:19:33.707Z,17.13
2022-09-03T03:22:01.245Z,17.11
2022-09-03T03:24:28.740Z,17.08
2022-09-03T03:26:59.198Z,17.04
2022-09-03T03:29:27.416Z,17.03
2022-09-03T03:31:55.000Z,16.99
2022-09-03T03:34:22.806Z,16.98
2022-09-03T03:36:50.583Z,16.95
2022-09-03T03:39:18.290Z,16.92
2022-09-03T03:41:45.921Z,16.88
2022-09-03T03:44:15.510Z,16.85
2022-09-03T03:46:43.163Z,16.82
2022-09-03T03:49:11.121Z,16.81
2022-09-03T03:51:40.695Z,16.80
2022-09-03T03:54:08.303Z,16.78
2022-09-03T03:56:36.494Z,16.76
2022-09-03T03:59:05.623Z,16.73
2022-09-03T04:01:34.611Z,16.73
2022-09-03T04:04:02.239Z,16.76
2022-09-03T04:06:30.028Z,16.77
2022-09-03T04:08:57.609Z,16.76
2022-09-03T04:11:26.002Z,16.79
2022-09-03T04:13:54.504Z,16.76
2022-09-03T04:16:23.798Z,16.76
2022-09-03T04:18:54.142Z,16.77
2022-09-03T04:21:23.934Z,16.79
2022-09-03T04:23:52.857Z,16.84
2022-09-03T04:26:22.128Z,16.87
2022-09-03T04:28:50.131Z,16.89
2022-09-03T04:31:19.965Z,16.93
2022-09-03T04:33:47.901Z,16.94
2022-09-03T04:36:18.829Z,16.94
2022-09-03T04:38:48.026Z,16.96
2022-09-03T04:41:17.780Z,16.95
2022-09-03T04:43:46.108Z,16.96
2022-09-03T04:46:20.210Z,16.98
2022-09-03T04:48:49.896Z,16.95
2022-09-03T04:51:21.061Z,16.89
2022-09-03T04:53:50.039Z,16.87
2022-09-03T04:56:19.597Z,16.84
2022-09-03T04:58:50.997Z,16.85
2022-09-03T05:01:20.618Z,16.84
2022-09-03T05:03:48.667Z,16.83
2022-09-03T05:06:17.194Z,16.80
2022-09-03T05:08:48.933Z,16.82
2022-09-03T05:11:18.808Z,16.84
2022-09-03T05:13:49.598Z,16.86
2022-09-03T05:16:18.993Z,16.85
2022-09-03T05:18:47.777Z,16.80
2022-09-03T05:21:16.973Z,16.79
2022-09-03T05:23:47.702Z,16.82
2022-09-03T05:26:17.429Z,16.84
2022-09-03T05:28:46.212Z,16.79
2022-09-03T05:31:15.715Z,16.76
2022-09-03T05:33:45.426Z,16.71
2022-09-03T05:36:14.592Z,16.66
2022-09-03T05:38:42.110Z,16.64
2022-09-03T05:41:13.000Z,16.62
2022-09-03T05:43:41.187Z,16.60
2022-09-03T05:46:10.286Z,16.56
2022-09-03T05:48:39.643Z,16.49
2022-09-03T05:51:09.339Z,16.42
2022-09-03T05:53:38.812Z,16.41
2022-09-03T05:56:10.858Z,16.42
2022-09-03T05:58:43.544Z,16.44
2022-09-03T06:01:13.132Z,16.46
2022-09-03T06:03:40.971Z,16.45
2022-09-03T06:06:09.087Z,16.43
2022-09-03T06:08:38.626Z,16.39
2022-09-03T06:11:07.007Z,16.37
2022-09-03T06:13:35.745Z,16.37
2022-09-03T06:16:07.143Z,16.32
2022-09-03T06:18:34.835Z,16.30
2022-09-03T06:21:04.151Z,16.31
2022-09-03T06:23:33.323Z,16.29
2022-09-03T06:26:05.277Z,16.26
2022-09-03T06:28:34.365Z,16.25
2022-09-03T06:31:03.029Z,16.30
2022-09-03T06:33:33.407Z,16.38
2022-09-03T06:36:04.614Z,16.46
2022-09-03T06:38:37.227Z,16.48
2022-09-03T06:41:07.692Z,16.45
2022-09-03T06:43:37.061Z,16.45
2022-09-03T06:46:06.746Z,16.51
2022-09-03T06:48:37.254Z,16.56
2022-09-03T06:51:07.206Z,16.58
2022-09-03T06:53:37.014Z,16.58
2022-09-03T06:56:07.638Z,16.57
2022-09-03T06:58:38.031Z,16.59
2022-09-03T07:01:07.807Z,16.58
2022-09-03T07:03:37.717Z,16.60
2022-09-03T07:06:07.186Z,16.59
2022-09-03T07:08:35.581Z,16.62
2022-09-03T07:11:06.124Z,16.66
2022-09-03T07:13:34.501Z,16.66
2022-09-03T07:16:03.211Z,16.61
2022-09-03T07:18:31.047Z,16.57
2022-09-03T07:21:01.587Z,16.55
2022-09-03T07:23:30.296Z,16.51
2022-09-03T07:25:59.169Z,16.49
2022-09-03T07:28:28.281Z,16.45
2022-09-03T07:31:01.532Z,16.44
2022-09-03T07:33:33.663Z,16.42
2022-09-03T07:36:08.335Z,16.44
2022-09-03T07:38:37.018Z,16.42
2022-09-03T07:41:06.736Z,16.43
2022-09-03T07:43:36.485Z,16.47
2022-09-03T07:46:04.429Z,16.54
2022-09-03T07:48:36.709Z,16.60
2022-09-03T07:51:06.537Z,16.75
2022-09-03T07:53:34.981Z,16.87
2022-09-03T07:56:03.663Z,17.00
2022-09-03T07:58:31.822Z,17.21
2022-09-03T08:01:00.362Z,17.46
2022-09-03T08:03:28.602Z,17.70
2022-09-03T08:06:01.680Z,17.97
2022-09-03T08:08:35.515Z,18.30
2022-09-03T08:11:11.136Z,18.67
2022-09-03T08:13:40.838Z,19.01
2022-09-03T08:16:09.614Z,19.29
2022-09-03T08:18:39.091Z,19.62
2022-09-03T08:21:08.492Z,19.89
2022-09-03T08:23:39.653Z,20.16
2022-09-03T08:26:07.774Z,20.45
2022-09-03T08:28:36.196Z,20.63
2022-09-03T08:31:08.408Z,20.81
2022-09-03T08:33:39.096Z,21.07
2022-09-03T08:36:08.660Z,21.29
2022-09-03T08:38:38.261Z,21.39
2022-09-03T08:41:11.518Z,21.43
2022-09-03T08:43:56.974Z,21.38
2022-09-03T08:46:33.137Z,21.32
2022-09-03T08:49:01.566Z,21.27
2022-09-03T08:51:29.113Z,21.24
2022-09-03T08:53:58.865Z,21.28
2022-09-03T08:56:31.785Z,21.32
2022-09-03T08:59:01.817Z,21.39
2022-09-03T09:01:42.783Z,21.51
2022-09-03T09:04:25.367Z,21.67
2022-09-03T09:06:57.181Z,21.84
2022-09-03T09:09:31.922Z,21.95
2022-09-03T09:12:11.956Z,21.98
2022-09-03T09:14:53.194Z,22.04
2022-09-03T09:17:32.753Z,22.09
2022-09-03T09:20:07.884Z,22.14
2022-09-03T09:22:39.549Z,22.20
2022-09-03T09:25:14.325Z,22.31
2022-09-03T09:27:51.807Z,22.43
2022-09-03T09:30:20.541Z,22.54
2022-09-03T09:32:48.312Z,22.65
2022-09-03T09:35:18.045Z,22.67
2022-09-03T09:37:50.962Z,22.64
2022-09-03T09:40:35.668Z,22.55
2022-09-03T09:43:14.089Z,22.49
2022-09-03T09:45:43.894Z,22.46
2022-09-03T09:48:19.987Z,22.39
2022-09-03T09:50:47.687Z,22.35
2022-09-03T09:53:18.561Z,22.32
2022-09-03T09:55:51.537Z,22.28
2022-09-03T09:58:23.598Z,22.29
2022-09-03T10:01:00.148Z,22.30
2022-09-03T10:03:29.948Z,22.30
2022-09-03T10:06:26.715Z,22.32
2022-09-03T10:09:06.309Z,22.41
2022-09-03T10:11:38.627Z,22.57
2022-09-03T10:14:14.972Z,22.70
2022-09-03T10:16:48.964Z,22.78
2022-09-03T10:19:21.940Z,22.97
2022-09-03T10:21:58.422Z,23.22
2022-09-03T10:24:48.712Z,23.66
2022-09-03T10:27:18.697Z,24.05
2022-09-03T10:29:47.746Z,24.45
2022-09-03T10:32:29.102Z,24.64
2022-09-03T10:35:20.541Z,24.68
2022-09-03T10:37:56.537Z,24.72
2022-09-03T10:40:33.259Z,24.64
2022-09-03T10:43:17.086Z,24.77
2022-09-03T10:45:57.045Z,25.15
2022-09-03T10:48:51.732Z,25.47
2022-09-03T10:51:25.605Z,25.57
2022-09-03T10:54:11.828Z,25.70
2022-09-03T10:56:47.418Z,25.79
2022-09-03T10:59:33.926Z,25.94
2022-09-03T11:02:23.110Z,26.06
2022-09-03T11:04:57.820Z,26.15
2022-09-03T11:07:31.349Z,26.22
2022-09-03T11:10:09.040Z,26.26
2022-09-03T11:12:43.896Z,26.30
2022-09-03T11:15:17.327Z,26.38
2022-09-03T11:17:51.852Z,26.47
2022-09-03T11:20:25.246Z,26.54
2022-09-03T11:22:56.498Z,26.59
2022-09-03T11:25:31.927Z,26.68
2022-09-03T11:28:12.593Z,26.74
2022-09-03T11:30:54.815Z,26.63
2022-09-03T11:33:25.792Z,26.59
2022-09-03T11:36:01.053Z,26.51
2022-09-03T11:38:32.310Z,26.39
2022-09-03T11:41:13.533Z,26.25
2022-09-03T11:43:42.661Z,26.21
2022-09-03T11:46:14.292Z,26.17
2022-09-03T11:48:46.186Z,26.22
2022-09-03T11:51:30.887Z,26.27
2022-09-03T11:54:00.832Z,26.26
2022-09-03T11:56:57.846Z,26.26
2022-09-03T11:59:27.519Z,26.27
2022-09-03T12:02:01.875Z,26.28
2022-09-03T12:04:40.301Z,26.26
2022-09-03T12:07:26.443Z,26.29
2022-09-03T12:10:13.482Z,26.28
2022-09-03T12:13:16.827Z,26.24
2022-09-03T12:16:08.623Z,26.20
2022-09-03T12:18:38.759Z,26.10
2022-09-03T12:21:10.923Z,25.98
2022-09-03T12:23:44.731Z,25.88
2022-09-03T12:26:16.779Z,25.80
2022-09-03T12:28:46.543Z,25.75
2022-09-03T12:31:25.635Z,25.64
2022-09-03T12:33:56.058Z,25.54
2022-09-03T12:36:27.413Z,25.44
2022-09-03T12:39:12.675Z,25.35
2022-09-03T12:41:57.271Z,25.26
2022-09-03T12:44:30.217Z,25.19
2022-09-03T12:50:07.360Z,25.01
2022-09-03T12:52:40.090Z,24.91
2022-09-03T12:55:27.492Z,24.83
2022-09-03T12:58:04.142Z,24.75
2022-09-03T13:00:34.994Z,24.64
2022-09-03T13:03:08.431Z,24.56
2022-09-03T13:05:43.164Z,24.46
2022-09-03T13:08:20.033Z,24.35
2022-09-03T13:10:53.434Z,24.28
2022-09-03T13:13:25.189Z,24.10
2022-09-03T13:16:27.974Z,23.62
2022-09-03T13:19:02.395Z,23.31
2022-09-03T13:21:38.532Z,22.95
2022-09-03T13:24:35.402Z,22.38
2022-09-03T13:27:33.672Z,21.79
2022-09-03T13:30:12.234Z,21.51
2022-09-03T13:32:57.463Z,21.25
2022-09-03T13:35:32.510Z,21.08
2022-09-03T13:38:10.201Z,20.91
2022-09-03T13:40:47.947Z,20.71
2022-09-03T13:43:26.068Z,20.58
2022-09-03T13:45:58.652Z,20.53
2022-09-03T13:48:50.420Z,20.51
2022-09-03T13:51:23.619Z,20.37
2022-09-03T13:54:04.535Z,20.20
2022-09-03T13:56:45.591Z,20.04
2022-09-03T13:59:20.980Z,19.95
2022-09-03T14:02:08.354Z,19.87
2022-09-03T14:04:50.222Z,19.75
2022-09-03T14:07:24.391Z,19.67
2022-09-03T14:10:02.860Z,19.63
2022-09-03T14:12:44.251Z,19.60
2022-09-03T14:15:19.664Z,19.58
2022-09-03T14:17:53.819Z,19.56
2022-09-03T14:20:24.691Z,19.56
2022-09-03T14:22:57.437Z,19.49
2022-09-03T14:25:27.081Z,19.49
2022-09-03T14:27:57.209Z,19.50
2022-09-03T14:30:40.537Z,19.48
2022-09-03T14:33:20.463Z,19.45
2022-09-03T14:36:03.769Z,19.43
2022-09-03T14:39:13.744Z,19.38
2022-09-03T14:42:16.335Z,19.24
2022-09-03T14:45:03.096Z,19.12
2022-09-03T14:47:44.507Z,19.05
2022-09-03T14:50:29.250Z,19.00
2022-09-03T14:53:14.913Z,18.91
2022-09-03T14:56:11.813Z,18.90
2022-09-03T14:59:00.793Z,18.85
2022-09-03T15:01:38.847Z,18.84
2022-09-03T15:04:47.857Z,18.89
2022-09-03T15:07:33.228Z,18.90
2022-09-03T15:10:08.444Z,18.95
2022-09-03T15:12:40.147Z,18.99
2022-09-03T15:15:14.165Z,19.06
2022-09-03T15:17:52.095Z,19.10
2022-09-03T15:20:31.275Z,19.13
2022-09-03T15:23:21.725Z,19.16
2022-09-03T15:26:11.036Z,19.18
2022-09-03T15:28:49.516Z,19.20
2022-09-03T15:31:24.779Z,19.22
2022-09-03T15:34:02.136Z,19.24
2022-09-03T15:36:37.196Z,19.24
2022-09-03T15:39:09.673Z,19.25
2022-09-03T15:41:45.543Z,19.30
2022-09-03T15:44:19.500Z,19.38
2022-09-03T15:46:56.702Z,19.45
2022-09-03T15:49:52.556Z,19.50
2022-09-03T15:52:31.647Z,19.53
2022-09-03T15:55:07.526Z,19.55
2022-09-03T15:57:43.838Z,19.56
2022-09-03T16:00:14.738Z,19.58
2022-09-03T16:02:55.570Z,19.51
2022-09-03T16:05:39.313Z,19.45
2022-09-03T16:08:13.665Z,19.41
2022-09-03T16:10:51.021Z,19.37
2022-09-03T16:13:31.913Z,19.33
2022-09-03T16:16:03.312Z,19.32
2022-09-03T16:18:35.696Z,19.35
2022-09-03T16:21:08.144Z,19.37
2022-09-03T16:23:42.163Z,19.37
2022-09-03T16:26:14.797Z,19.37
2022-09-03T16:28:47.320Z,19.34
2022-09-03T16:31:24.132Z,19.32
2022-09-03T16:34:03.308Z,19.33
2022-09-03T16:36:44.520Z,19.33
2022-09-03T16:39:25.637Z,19.32
2022-09-03T16:42:01.732Z,19.31
2022-09-03T16:44:45.341Z,19.31
2022-09-03T16:47:23.050Z,19.29
2022-09-03T16:50:05.441Z,19.27
2022-09-03T16:52:42.916Z,19.25
2022-09-03T16:55:22.169Z,19.22
2022-09-03T16:58:01.657Z,19.20
2022-09-03T17:00:50.243Z,19.16
2022-09-03T17:03:42.444Z,19.14
2022-09-03T17:06:32.262Z,19.09
2022-09-03T17:09:16.657Z,19.06
2022-09-03T17:11:59.141Z,19.04
2022-09-03T17:14:48.530Z,19.02
2022-09-03T17:17:30.184Z,19.00
2022-09-03T17:20:06.520Z,18.97
2022-09-03T17:22:46.084Z,18.93
2022-09-03T17:25:27.556Z,18.88
2022-09-03T17:28:05.222Z,18.85
2022-09-03T17:30:43.409Z,18.80
2022-09-03T17:33:35.907Z,18.74
2022-09-03T17:36:09.911Z,18.70
2022-09-03T17:49:30.483Z,18.47
2022-09-03T17:52:04.667Z,18.43
2022-09-03T17:54:42.104Z,18.38
2022-09-03T17:57:19.590Z,18.33
2022-09-03T17:59:55.239Z,18.26
2022-09-03T18:02:32.977Z,18.22
2022-09-03T18:05:07.812Z,18.19
2022-09-03T18:07:48.400Z,18.14
2022-09-03T18:10:28.440Z,18.09
2022-09-03T18:13:06.066Z,18.03
2022-09-03T18:15:38.850Z,18.00
2022-09-03T18:18:11.854Z,17.97
2022-09-03T18:21:22.373Z,17.95
2022-09-03T18:24:15.690Z,17.90
2022-09-03T18:27:07.862Z,17.84
2022-09-03T18:30:04.382Z,17.77
2022-09-03T18:32:49.315Z,17.77
2022-09-03T18:35:34.816Z,17.69
2022-09-03T18:38:23.483Z,17.61
2022-09-03T18:41:13.488Z,17.55
2022-09-03T18:44:07.977Z,17.51
2022-09-03T18:50:19.879Z,17.48
2022-09-03T18:53:13.252Z,17.44
2022-09-03T18:56:12.433Z,17.41
2022-09-03T18:59:09.963Z,17.39
2022-09-03T19:01:57.754Z,17.38
2022-09-03T19:04:55.453Z,17.37
2022-09-03T19:07:48.475Z,17.36
2022-09-03T19:10:38.525Z,17.36
2022-09-03T19:13:43.662Z,17.33
2022-09-03T19:16:32.620Z,17.32
2022-09-03T19:19:39.631Z,17.29
2022-09-03T19:22:27.622Z,17.29
2022-09-03T19:25:20.565Z,17.29
2022-09-03T19:28:21.529Z,17.28
2022-09-03T19:31:19.821Z,17.27
2022-09-03T19:34:12.464Z,17.23
2022-09-03T19:37:02.773Z,17.20
2022-09-03T19:40:02.831Z,17.17
2022-09-03T19:43:02.053Z,17.15
2022-09-03T19:45:59.955Z,17.11
2022-09-03T19:48:59.942Z,17.07
2022-09-03T19:51:51.012Z,17.06
2022-09-03T19:54:41.535Z,17.04
2022-09-03T19:57:30.062Z,17.02
2022-09-03T20:00:16.892Z,17.02
2022-09-03T20:03:07.471Z,17.00
2022-09-03T20:05:56.162Z,16.98
2022-09-03T20:08:43.571Z,16.94
2022-09-03T20:11:17.805Z,16.91
2022-09-03T20:14:03.122Z,16.92
2022-09-03T20:16:35.927Z,16.94
2022-09-03T20:19:13.002Z,16.95
2022-09-03T20:21:49.371Z,16.95
2022-09-03T20:24:28.458Z,16.91
2022-09-03T20:27:05.028Z,16.87
2022-09-03T20:29:49.218Z,16.84
2022-09-03T20:32:30.096Z,16.80
2022-09-03T20:35:06.906Z,16.80
2022-09-03T20:37:42.576Z,16.77
2022-09-03T20:40:19.331Z,16.77
2022-09-03T20:43:07.550Z,16.74
2022-09-03T20:45:53.713Z,16.69
2022-09-03T20:48:25.270Z,16.67
2022-09-03T20:51:01.599Z,16.66
2022-09-03T20:54:02.181Z,16.65
2022-09-03T20:56:38.735Z,16.62
2022-09-03T20:59:16.787Z,16.62
2022-09-03T21:01:56.295Z,16.66
2022-09-03T21:04:40.375Z,16.70
2022-09-03T21:07:18.559Z,16.73
2022-09-03T21:09:57.003Z,16.75
2022-09-03T21:12:33.979Z,16.79
2022-09-03T21:15:11.745Z,16.82
2022-09-03T21:17:51.560Z,16.82
2022-09-03T21:20:29.774Z,16.81
2022-09-03T21:23:13.293Z,16.79
2022-09-03T21:25:43.940Z,16.79
2022-09-03T21:28:17.615Z,16.79
2022-09-03T21:30:52.384Z,16.78
2022-09-03T21:33:24.538Z,16.75
2022-09-03T21:35:55.446Z,16.73
2022-09-03T21:38:26.584Z,16.71
2022-09-03T21:40:59.960Z,16.69
2022-09-03T21:43:34.556Z,16.70
2022-09-03T21:46:07.505Z,16.68
2022-09-03T21:48:39.120Z,16.67
2022-09-03T21:51:14.522Z,16.66
2022-09-03T21:53:47.320Z,16.65
2022-09-03T21:56:45.291Z,16.65
2022-09-03T21:59:28.466Z,16.63
2022-09-03T22:02:04.780Z,16.62
2022-09-03T22:04:32.795Z,16.61
2022-09-03T22:07:11.043Z,16.63
2022-09-03T22:09:46.472Z,16.62
2022-09-03T22:12:21.343Z,16.64
2022-09-03T22:14:55.621Z,16.64
2022-09-03T22:17:30.545Z,16.65
2022-09-03T22:19:58.300Z,16.64
2022-09-03T22:22:35.204Z,16.62
2022-09-03T22:25:07.005Z,16.60
2022-09-03T22:27:44.642Z,16.59
2022-09-03T22:30:20.051Z,16.60
2022-09-03T22:33:01.225Z,16.58
2022-09-03T22:35:49.626Z,16.54
2022-09-03T22:38:49.053Z,16.53
2022-09-03T22:41:30.877Z,16.57
2022-09-03T22:44:05.981Z,16.60
2022-09-03T22:46:47.249Z,16.65
2022-09-03T22:49:32.770Z,16.68
2022-09-03T22:52:13.248Z,16.70
2022-09-03T22:54:54.417Z,16.69
2022-09-03T22:57:25.335Z,16.67
2022-09-03T23:00:00.657Z,16.67
2022-09-03T23:02:32.298Z,16.68
2022-09-03T23:05:06.194Z,16.70
2022-09-03T23:07:46.104Z,16.72
2022-09-03T23:10:22.605Z,16.74
2022-09-03T23:13:05.351Z,16.76
2022-09-03T23:15:35.201Z,16.76
2022-09-03T23:18:09.064Z,16.76
2022-09-03T23:20:40.124Z,16.75
2022-09-03T23:23:16.222Z,16.74
2022-09-03T23:25:48.754Z,16.73
2022-09-03T23:28:24.189Z,16.75
2022-09-03T23:30:51.848Z,16.75
2022-09-03T23:33:20.665Z,16.75
2022-09-03T23:35:54.719Z,16.71
2022-09-03T23:38:31.185Z,16.67
2022-09-03T23:41:03.254Z,16.66
2022-09-03T23:43:56.824Z,16.65
2022-09-03T23:46:29.097Z,16.65
2022-09-03T23:49:23.647Z,16.69
2022-09-03T23:52:08.789Z,16.69
2022-09-03T23:54:39.896Z,16.71
2022-09-03T23:57:24.526Z,16.76
